Aérodrome :
LOGIN :

S'inscrire | Disclaimer

   EN    FR    IT 

 










Légende :    VFR   VFR Marginal   IFR   IFR Intensif   IFR Très Intensif
Visi : 
Plafond : 
>= 8 km
>= 3000ft
5 à 8 km
1000 à 3000 ft
1500m à 5 km
500 à 1000 ft
800 à 1500m
200 à 500 ft
< 800m
< 200 ft
Symboles :   Orages  Brouillard  Fortes neiges  Fortes précipitations  Vent > 20 kt
SIGMETs :   Divers  Orages  Givrage  Turbulence  Onde Orograph.  Cendres Volcan.







- Altitude de l'aérodrome : 375 ft
- Code IATA : MST


EHBK - Maastricht Aachen

DERNIER METAR :
  • 242025Z AUTO 34008KT 310V030 9999 BKN024 BKN028 OVC031 16/11 Q1023 NOSIG

METARs EXPIRÉS :
  • 241955Z AUTO 35006KT 310V040 9999 FEW038 SCT044 16/11 Q1023 NOSIG
  • 241925Z AUTO 35008KT 310V020 9999 NSC 16/11 Q1022 NOSIG
  • 241855Z AUTO 35006KT 310V030 9999 OVC040 17/11 Q1022 NOSIG
  • 241825Z AUTO 34006KT 300V010 9999 FEW031 OVC044 17/11 Q1022 NOSIG
  • 241755Z AUTO 34007KT 310V020 9999 OVC042 17/10 Q1023 NOSIG

TAF TAF EHBK
Valide du 24 à 18h jusqu'au 26 à 00h UTC


241647Z 2418/2524 35008KT 9999 BKN035
BECMG 2422/2501 BKN012
PROB40
TEMPO 2422/2501 3500 -DZ BKN006
BECMG 2501/2503 6000 BKN006
PROB40
TEMPO 2501/2507 2500 -DZ BKN003
BECMG 2508/2510 9999 SCT020
Pas de NOTAMs connus pour ce terrain.



MET'MAP, la Météo Aéronautique d'un coup d'oeil ! - Copyright ORBIFLY Décembre 2007 - Disclaimer

ORBIFLY MET'MAP TEAM :

Programmation & Développement : Alexandra Zaïnal
Conception & Développement : Baudouin d'Aumeries
Co-Programmation & Développement : Marc-Olivier Méhu
Soutien technique & logistique : Manuel Goepfert

Contact : metmap@orbifly.com




SOURCES & CREDITS :

   NOAA